sensor_id;sensor_type;location;lat;lon;timestamp;pressure;altitude;pressure_sealevel;temperature;humidity
79540;BME280;68991;52.122;5.406;2023-10-13T00:00:30;101273.47;;;20.31;75.96
79540;BME280;68991;52.122;5.406;2023-10-13T00:03:01;101274.34;;;20.32;75.86
79540;BME280;68991;52.122;5.406;2023-10-13T00:05:28;101278.06;;;20.31;75.83
79540;BME280;68991;52.122;5.406;2023-10-13T00:07:58;101277.19;;;20.30;76.01
79540;BME280;68991;52.122;5.406;2023-10-13T00:10:28;101267.28;;;20.29;76.05
79540;BME280;68991;52.122;5.406;2023-10-13T00:12:55;101264.53;;;20.29;76.12
79540;BME280;68991;52.122;5.406;2023-10-13T00:15:32;101263.66;;;20.29;75.62
79540;BME280;68991;52.122;5.406;2023-10-13T00:18:06;101253.63;;;20.29;75.68
79540;BME280;68991;52.122;5.406;2023-10-13T00:20:41;101259.19;;;20.28;75.75
79540;BME280;68991;52.122;5.406;2023-10-13T00:23:14;101257.34;;;20.28;75.94
79540;BME280;68991;52.122;5.406;2023-10-13T00:25:41;101246.50;;;20.27;75.89
79540;BME280;68991;52.122;5.406;2023-10-13T00:28:16;101253.75;;;20.28;75.76
79540;BME280;68991;52.122;5.406;2023-10-13T00:30:54;101252.88;;;20.27;75.73
79540;BME280;68991;52.122;5.406;2023-10-13T00:33:27;101242.91;;;20.26;76.07
79540;BME280;68991;52.122;5.406;2023-10-13T00:35:54;101243.03;;;20.25;75.62
79540;BME280;68991;52.122;5.406;2023-10-13T00:38:24;101236.59;;;20.26;75.63
79540;BME280;68991;52.122;5.406;2023-10-13T00:40:51;101238.44;;;20.25;76.13
79540;BME280;68991;52.122;5.406;2023-10-13T00:43:22;101233.97;;;20.24;75.69
79540;BME280;68991;52.122;5.406;2023-10-13T00:45:56;101232.13;;;20.25;76.01
79540;BME280;68991;52.122;5.406;2023-10-13T00:48:25;101226.66;;;20.25;76.10
79540;BME280;68991;52.122;5.406;2023-10-13T00:51:02;101230.38;;;20.24;75.67
79540;BME280;68991;52.122;5.406;2023-10-13T00:53:30;101222.19;;;20.24;75.91
79540;BME280;68991;52.122;5.406;2023-10-13T00:56:03;101224.91;;;20.24;75.87
79540;BME280;68991;52.122;5.406;2023-10-13T00:58:45;101212.25;;;20.23;75.53
79540;BME280;68991;52.122;5.406;2023-10-13T01:01:22;101217.72;;;20.23;75.64
79540;BME280;68991;52.122;5.406;2023-10-13T01:03:51;101208.69;;;20.22;75.87
79540;BME280;68991;52.122;5.406;2023-10-13T01:06:36;101207.81;;;20.22;76.15
79540;BME280;68991;52.122;5.406;2023-10-13T01:09:08;101202.34;;;20.22;75.62
79540;BME280;68991;52.122;5.406;2023-10-13T01:11:48;101206.78;;;20.23;75.92
79540;BME280;68991;52.122;5.406;2023-10-13T01:14:20;101196.88;;;20.22;75.45
79540;BME280;68991;52.122;5.406;2023-10-13T01:16:48;101197.88;;;20.21;75.90
79540;BME280;68991;52.122;5.406;2023-10-13T01:19:19;101193.28;;;20.21;75.54
79540;BME280;68991;52.122;5.406;2023-10-13T01:21:53;101189.69;;;20.21;75.72
79540;BME280;68991;52.122;5.406;2023-10-13T01:24:30;101183.34;;;20.20;75.73
79540;BME280;68991;52.122;5.406;2023-10-13T01:27:05;101177.03;;;20.20;75.86
79540;BME280;68991;52.122;5.406;2023-10-13T01:29:45;101172.44;;;20.20;75.64
79540;BME280;68991;52.122;5.406;2023-10-13T01:32:18;101166.25;;;20.18;75.76
79540;BME280;68991;52.122;5.406;2023-10-13T01:34:45;101166.09;;;20.20;75.56
79540;BME280;68991;52.122;5.406;2023-10-13T01:37:12;101163.38;;;20.20;75.65
79540;BME280;68991;52.122;5.406;2023-10-13T01:39:39;101162.66;;;20.18;75.37
79540;BME280;68991;52.122;5.406;2023-10-13T01:42:05;101153.47;;;20.19;75.71
79540;BME280;68991;52.122;5.406;2023-10-13T01:44:32;101164.38;;;20.19;75.50
79540;BME280;68991;52.122;5.406;2023-10-13T01:47:00;101154.47;;;20.18;75.83
79540;BME280;68991;52.122;5.406;2023-10-13T01:49:35;101141.78;;;20.17;75.52
79540;BME280;68991;52.122;5.406;2023-10-13T01:52:09;101145.41;;;20.17;75.45
79540;BME280;68991;52.122;5.406;2023-10-13T01:54:45;101139.06;;;20.17;75.74
79540;BME280;68991;52.122;5.406;2023-10-13T01:57:12;101133.59;;;20.17;75.50
79540;BME280;68991;52.122;5.406;2023-10-13T01:59:46;101132.72;;;20.16;75.45
79540;BME280;68991;52.122;5.406;2023-10-13T02:02:14;101131.75;;;20.17;75.70
79540;BME280;68991;52.122;5.406;2023-10-13T02:04:42;101126.41;;;20.16;75.78
79540;BME280;68991;52.122;5.406;2023-10-13T02:07:16;101125.56;;;20.15;75.78
79540;BME280;68991;52.122;5.406;2023-10-13T02:09:43;101136.47;;;20.15;75.40
79540;BME280;68991;52.122;5.406;2023-10-13T02:12:09;101126.56;;;20.14;75.68
79540;BME280;68991;52.122;5.406;2023-10-13T02:14:36;101119.22;;;20.15;75.91
79540;BME280;68991;52.122;5.406;2023-10-13T02:17:04;101121.09;;;20.14;75.41
79540;BME280;68991;52.122;5.406;2023-10-13T02:19:49;101114.66;;;20.15;75.92
79540;BME280;68991;52.122;5.406;2023-10-13T02:22:20;101111.03;;;20.15;75.76
79540;BME280;68991;52.122;5.406;2023-10-13T02:24:59;101114.75;;;20.14;75.47
79540;BME280;68991;52.122;5.406;2023-10-13T02:27:35;101117.50;;;20.14;75.23
79540;BME280;68991;52.122;5.406;2023-10-13T02:30:08;101101.97;;;20.14;75.68
79540;BME280;68991;52.122;5.406;2023-10-13T02:32:40;101101.97;;;20.14;75.38
79540;BME280;68991;52.122;5.406;2023-10-13T02:35:10;101095.66;;;20.14;75.44
79540;BME280;68991;52.122;5.406;2023-10-13T02:37:42;101092.94;;;20.14;75.73
79540;BME280;68991;52.122;5.406;2023-10-13T02:40:20;101083.00;;;20.13;75.68
79540;BME280;68991;52.122;5.406;2023-10-13T02:42:50;101083.00;;;20.13;75.50
79540;BME280;68991;52.122;5.406;2023-10-13T02:45:16;101080.25;;;20.13;75.48
79540;BME280;68991;52.122;5.406;2023-10-13T02:47:48;101073.09;;;20.12;75.53
79540;BME280;68991;52.122;5.406;2023-10-13T02:50:34;101064.91;;;20.12;75.31
79540;BME280;68991;52.122;5.406;2023-10-13T02:53:00;101059.44;;;20.12;75.12
79540;BME280;68991;52.122;5.406;2023-10-13T02:55:27;101047.66;;;20.11;75.08
79540;BME280;68991;52.122;5.406;2023-10-13T02:57:54;101051.25;;;20.12;76.09
79540;BME280;68991;52.122;5.406;2023-10-13T03:00:22;101047.66;;;20.11;75.19
79540;BME280;68991;52.122;5.406;2023-10-13T03:02:49;101037.59;;;20.12;75.76
79540;BME280;68991;52.122;5.406;2023-10-13T03:05:24;101030.41;;;20.11;75.81
79540;BME280;68991;52.122;5.406;2023-10-13T03:07:55;101027.69;;;20.11;75.38
79540;BME280;68991;52.122;5.406;2023-10-13T03:10:23;101013.16;;;20.10;75.32
79540;BME280;68991;52.122;5.406;2023-10-13T03:12:55;100990.44;;;20.10;75.23
79540;BME280;68991;52.122;5.406;2023-10-13T03:15:22;100987.72;;;20.10;75.40
79540;BME280;68991;52.122;5.406;2023-10-13T03:17:55;100991.31;;;20.10;75.25
79540;BME280;68991;52.122;5.406;2023-10-13T03:20:21;100984.13;;;20.09;75.34
79540;BME280;68991;52.122;5.406;2023-10-13T03:22:57;100984.13;;;20.09;75.90
79540;BME280;68991;52.122;5.406;2023-10-13T03:25:24;100988.72;;;20.09;75.53
79540;BME280;68991;52.122;5.406;2023-10-13T03:28:04;100990.59;;;20.08;75.23
79540;BME280;68991;52.122;5.406;2023-10-13T03:30:31;100986.84;;;20.09;75.61
79540;BME280;68991;52.122;5.406;2023-10-13T03:33:05;100978.81;;;20.08;75.66
79540;BME280;68991;52.122;5.406;2023-10-13T03:35:52;100972.34;;;20.09;75.32
79540;BME280;68991;52.122;5.406;2023-10-13T03:38:32;100967.75;;;20.09;75.10
79540;BME280;68991;52.122;5.406;2023-10-13T03:41:02;100976.97;;;20.08;75.58
79540;BME280;68991;52.122;5.406;2023-10-13T03:43:32;100966.03;;;20.08;75.57
79540;BME280;68991;52.122;5.406;2023-10-13T03:45:59;100939.72;;;20.07;75.55
79540;BME280;68991;52.122;5.406;2023-10-13T03:48:34;100937.72;;;20.09;75.28
79540;BME280;68991;52.122;5.406;2023-10-13T03:51:18;100925.81;;;20.10;75.34
79540;BME280;68991;52.122;5.406;2023-10-13T03:53:44;100932.13;;;20.11;75.62
79540;BME280;68991;52.122;5.406;2023-10-13T03:56:23;100917.50;;;20.12;75.97
79540;BME280;68991;52.122;5.406;2023-10-13T03:58:58;100901.84;;;20.14;75.55
79540;BME280;68991;52.122;5.406;2023-10-13T04:01:47;100909.03;;;20.15;75.97
79540;BME280;68991;52.122;5.406;2023-10-13T04:04:25;100897.97;;;20.16;75.67
79540;BME280;68991;52.122;5.406;2023-10-13T04:07:04;100885.19;;;20.17;75.78
79540;BME280;68991;52.122;5.406;2023-10-13T04:09:35;100876.88;;;20.18;76.10
79540;BME280;68991;52.122;5.406;2023-10-13T04:12:07;100879.59;;;20.18;76.33
79540;BME280;68991;52.122;5.406;2023-10-13T04:14:44;100874.13;;;20.18;76.27
79540;BME280;68991;52.122;5.406;2023-10-13T04:17:19;100865.94;;;20.18;76.33
79540;BME280;68991;52.122;5.406;2023-10-13T04:19:56;100865.78;;;20.20;76.28
79540;BME280;68991;52.122;5.406;2023-10-13T04:22:40;100853.16;;;20.19;76.14
79540;BME280;68991;52.122;5.406;2023-10-13T04:25:18;100842.25;;;20.19;76.34
79540;BME280;68991;52.122;5.406;2023-10-13T04:30:50;100841.38;;;20.18;76.07
79540;BME280;68991;52.122;5.406;2023-10-13T04:33:31;100845.09;;;20.17;76.20
79540;BME280;68991;52.122;5.406;2023-10-13T04:36:05;100826.88;;;20.18;76.20
79540;BME280;68991;52.122;5.406;2023-10-13T04:38:43;100823.25;;;20.17;76.13
79540;BME280;68991;52.122;5.406;2023-10-13T04:41:29;100822.41;;;20.17;76.21
79540;BME280;68991;52.122;5.406;2023-10-13T04:44:15;100815.94;;;20.18;76.23
79540;BME280;68991;52.122;5.406;2023-10-13T04:47:14;100811.47;;;20.17;76.48
79540;BME280;68991;52.122;5.406;2023-10-13T04:49:49;100809.63;;;20.17;76.24
79540;BME280;68991;52.122;5.406;2023-10-13T04:52:17;100808.63;;;20.18;76.24
79540;BME280;68991;52.122;5.406;2023-10-13T04:55:13;100810.31;;;20.19;76.05
79540;BME280;68991;52.122;5.406;2023-10-13T04:57:58;100798.56;;;20.19;76.27
79540;BME280;68991;52.122;5.406;2023-10-13T05:00:37;100793.13;;;20.19;76.31
79540;BME280;68991;52.122;5.406;2023-10-13T05:03:22;100776.72;;;20.19;76.08
79540;BME280;68991;52.122;5.406;2023-10-13T05:06:07;100780.16;;;20.21;76.14
79540;BME280;68991;52.122;5.406;2023-10-13T05:08:52;100775.88;;;20.18;76.46
79540;BME280;68991;52.122;5.406;2023-10-13T05:11:37;100785.63;;;20.21;76.25
79540;BME280;68991;52.122;5.406;2023-10-13T05:14:21;100768.38;;;20.20;76.01
79540;BME280;68991;52.122;5.406;2023-10-13T05:17:06;100765.81;;;20.19;76.15
79540;BME280;68991;52.122;5.406;2023-10-13T05:19:56;100754.91;;;20.19;76.24
79540;BME280;68991;52.122;5.406;2023-10-13T05:22:40;100764.78;;;20.20;76.07
79540;BME280;68991;52.122;5.406;2023-10-13T05:25:25;100765.81;;;20.19;76.15
79540;BME280;68991;52.122;5.406;2023-10-13T05:28:10;100753.16;;;20.18;76.06
79540;BME280;68991;52.122;5.406;2023-10-13T05:31:02;100762.22;;;20.18;75.74
79540;BME280;68991;52.122;5.406;2023-10-13T05:33:48;100764.06;;;20.18;76.29
79540;BME280;68991;52.122;5.406;2023-10-13T05:36:33;100758.63;;;20.18;75.95
79540;BME280;68991;52.122;5.406;2023-10-13T05:39:18;100748.69;;;20.17;76.10
79540;BME280;68991;52.122;5.406;2023-10-13T05:42:03;100750.44;;;20.18;75.88
79540;BME280;68991;52.122;5.406;2023-10-13T05:44:49;100753.16;;;20.18;76.26
79540;BME280;68991;52.122;5.406;2023-10-13T05:47:44;100744.09;;;20.17;76.43
79540;BME280;68991;52.122;5.406;2023-10-13T05:50:17;100742.25;;;20.18;75.99
79540;BME280;68991;52.122;5.406;2023-10-13T05:52:47;100737.66;;;20.18;75.91
79540;BME280;68991;52.122;5.406;2023-10-13T05:55:37;100736.78;;;20.18;76.25
79540;BME280;68991;52.122;5.406;2023-10-13T05:58:22;100742.25;;;20.18;76.11
79540;BME280;68991;52.122;5.406;2023-10-13T06:01:12;100728.59;;;20.18;76.12
79540;BME280;68991;52.122;5.406;2023-10-13T06:03:57;100728.59;;;20.18;76.08
79540;BME280;68991;52.122;5.406;2023-10-13T06:06:42;100732.19;;;20.18;75.94
79540;BME280;68991;52.122;5.406;2023-10-13T06:09:27;100745.69;;;20.20;76.29
79540;BME280;68991;52.122;5.406;2023-10-13T06:12:12;100730.31;;;20.19;75.81
79540;BME280;68991;52.122;5.406;2023-10-13T06:14:57;100734.75;;;20.20;75.81
79540;BME280;68991;52.122;5.406;2023-10-13T06:17:42;100717.50;;;20.19;75.96
79540;BME280;68991;52.122;5.406;2023-10-13T06:20:27;100701.13;;;20.19;76.19
79540;BME280;68991;52.122;5.406;2023-10-13T06:23:12;100705.75;;;20.19;75.77
79540;BME280;68991;52.122;5.406;2023-10-13T06:25:57;100693.09;;;20.18;76.19
79540;BME280;68991;52.122;5.406;2023-10-13T06:28:42;100700.28;;;20.19;76.21
79540;BME280;68991;52.122;5.406;2023-10-13T06:31:10;100691.25;;;20.18;76.39
79540;BME280;68991;52.122;5.406;2023-10-13T06:33:48;100694.84;;;20.19;76.50
79540;BME280;68991;52.122;5.406;2023-10-13T06:36:15;100692.09;;;20.19;75.99
79540;BME280;68991;52.122;5.406;2023-10-13T06:38:44;100693.09;;;20.18;76.21
79540;BME280;68991;52.122;5.406;2023-10-13T06:41:10;100695.84;;;20.18;76.11
79540;BME280;68991;52.122;5.406;2023-10-13T06:43:46;100693.09;;;20.18;76.20
79540;BME280;68991;52.122;5.406;2023-10-13T06:46:26;100681.31;;;20.17;75.86
79540;BME280;68991;52.122;5.406;2023-10-13T06:48:55;100682.19;;;20.18;76.15
79540;BME280;68991;52.122;5.406;2023-10-13T06:51:22;100690.38;;;20.18;76.10
79540;BME280;68991;52.122;5.406;2023-10-13T06:53:49;100685.03;;;20.16;75.84
79540;BME280;68991;52.122;5.406;2023-10-13T06:56:15;100685.91;;;20.17;76.02
79540;BME280;68991;52.122;5.406;2023-10-13T06:58:54;100678.72;;;20.16;76.04
79540;BME280;68991;52.122;5.406;2023-10-13T07:01:30;100661.50;;;20.15;76.09
79540;BME280;68991;52.122;5.406;2023-10-13T07:04:07;100666.09;;;20.15;76.10
79540;BME280;68991;52.122;5.406;2023-10-13T07:06:41;100658.78;;;20.15;76.20
79540;BME280;68991;52.122;5.406;2023-10-13T07:09:17;100655.19;;;20.15;75.70
79540;BME280;68991;52.122;5.406;2023-10-13T07:12:06;100657.91;;;20.15;76.19
79540;BME280;68991;52.122;5.406;2023-10-13T07:14:52;100657.91;;;20.15;75.94
79540;BME280;68991;52.122;5.406;2023-10-13T07:17:19;100643.38;;;20.14;75.92
79540;BME280;68991;52.122;5.406;2023-10-13T07:19:51;100632.47;;;20.14;76.12
79540;BME280;68991;52.122;5.406;2023-10-13T07:22:19;100616.09;;;20.14;76.16
79540;BME280;68991;52.122;5.406;2023-10-13T07:24:48;100604.31;;;20.14;75.85
79540;BME280;68991;52.122;5.406;2023-10-13T07:27:16;100595.25;;;20.13;75.93
79540;BME280;68991;52.122;5.406;2023-10-13T07:29:53;100609.78;;;20.14;75.87
79540;BME280;68991;52.122;5.406;2023-10-13T07:32:41;100604.31;;;20.14;76.13
79540;BME280;68991;52.122;5.406;2023-10-13T07:35:17;100605.19;;;20.14;75.86
79540;BME280;68991;52.122;5.406;2023-10-13T07:37:46;100601.56;;;20.14;75.82
79540;BME280;68991;52.122;5.406;2023-10-13T07:40:19;100608.78;;;20.15;75.89
79540;BME280;68991;52.122;5.406;2023-10-13T07:42:52;100605.19;;;20.14;76.23
79540;BME280;68991;52.122;5.406;2023-10-13T07:45:27;100601.44;;;20.15;75.96
79540;BME280;68991;52.122;5.406;2023-10-13T07:48:07;100588.78;;;20.14;76.10
79540;BME280;68991;52.122;5.406;2023-10-13T07:50:59;100625.16;;;20.15;76.08
79540;BME280;68991;52.122;5.406;2023-10-13T07:53:41;100586.06;;;20.14;76.12
79540;BME280;68991;52.122;5.406;2023-10-13T07:56:10;100602.44;;;20.14;75.87
79540;BME280;68991;52.122;5.406;2023-10-13T07:58:39;100602.44;;;20.14;75.77
79540;BME280;68991;52.122;5.406;2023-10-13T08:01:27;100600.59;;;20.15;76.23
79540;BME280;68991;52.122;5.406;2023-10-13T08:03:54;100594.25;;;20.14;75.98
79540;BME280;68991;52.122;5.406;2023-10-13T08:06:38;100602.28;;;20.16;75.81
79540;BME280;68991;52.122;5.406;2023-10-13T08:09:07;100599.56;;;20.16;75.85
79540;BME280;68991;52.122;5.406;2023-10-13T08:11:57;100595.81;;;20.17;75.82
79540;BME280;68991;52.122;5.406;2023-10-13T08:14:23;100593.97;;;20.17;75.56
79540;BME280;68991;52.122;5.406;2023-10-13T08:17:08;100594.84;;;20.18;75.94
79540;BME280;68991;52.122;5.406;2023-10-13T08:19:39;100588.50;;;20.17;75.82
79540;BME280;68991;52.122;5.406;2023-10-13T08:22:12;100579.31;;;20.18;75.69
79540;BME280;68991;52.122;5.406;2023-10-13T08:24:49;100582.06;;;20.18;75.79
79540;BME280;68991;52.122;5.406;2023-10-13T08:27:19;100579.03;;;20.21;76.00
79540;BME280;68991;52.122;5.406;2023-10-13T08:30:04;100580.88;;;20.21;75.64
79540;BME280;68991;52.122;5.406;2023-10-13T08:32:52;100582.63;;;20.22;76.02
79540;BME280;68991;52.122;5.406;2023-10-13T08:35:23;100579.03;;;20.21;76.05
79540;BME280;68991;52.122;5.406;2023-10-13T08:38:04;100572.69;;;20.21;75.97
79540;BME280;68991;52.122;5.406;2023-10-13T08:40:50;100576.28;;;20.21;75.92
79540;BME280;68991;52.122;5.406;2023-10-13T08:43:37;100570.84;;;20.21;75.79
79540;BME280;68991;52.122;5.406;2023-10-13T08:46:10;100575.31;;;20.22;75.87
79540;BME280;68991;52.122;5.406;2023-10-13T08:48:58;100568.97;;;20.22;75.55
79540;BME280;68991;52.122;5.406;2023-10-13T08:51:42;100552.59;;;20.22;75.50
79540;BME280;68991;52.122;5.406;2023-10-13T08:54:17;100547.13;;;20.22;75.58
79540;BME280;68991;52.122;5.406;2023-10-13T08:57:01;100547.13;;;20.22;75.64
79540;BME280;68991;52.122;5.406;2023-10-13T08:59:56;100555.31;;;20.22;75.40
79540;BME280;68991;52.122;5.406;2023-10-13T09:02:30;100547.13;;;20.22;75.76
79540;BME280;68991;52.122;5.406;2023-10-13T09:05:16;100527.00;;;20.23;75.63
79540;BME280;68991;52.122;5.406;2023-10-13T09:08:01;100554.16;;;20.24;75.88
79540;BME280;68991;52.122;5.406;2023-10-13T09:10:36;100544.09;;;20.25;75.62
79540;BME280;68991;52.122;5.406;2023-10-13T09:13:15;100545.97;;;20.24;75.70
79540;BME280;68991;52.122;5.406;2023-10-13T09:15:47;100533.31;;;20.23;75.69
79540;BME280;68991;52.122;5.406;2023-10-13T09:18:26;100539.66;;;20.24;75.77
79540;BME280;68991;52.122;5.406;2023-10-13T09:21:09;100536.78;;;20.25;76.00
79540;BME280;68991;52.122;5.406;2023-10-13T09:23:54;100525.88;;;20.25;75.91
79540;BME280;68991;52.122;5.406;2023-10-13T09:26:40;100540.25;;;20.27;75.90
79540;BME280;68991;52.122;5.406;2023-10-13T09:29:15;100541.13;;;20.28;75.79
79540;BME280;68991;52.122;5.406;2023-10-13T09:31:45;100536.53;;;20.28;76.03
79540;BME280;68991;52.122;5.406;2023-10-13T09:34:21;100532.94;;;20.28;75.77
79540;BME280;68991;52.122;5.406;2023-10-13T09:36:50;100525.59;;;20.28;75.99
79540;BME280;68991;52.122;5.406;2023-10-13T09:39:25;100518.28;;;20.29;75.98
79540;BME280;68991;52.122;5.406;2023-10-13T09:42:07;100514.50;;;20.30;75.74
79540;BME280;68991;52.122;5.406;2023-10-13T09:44:38;100508.06;;;20.31;76.17
79540;BME280;68991;52.122;5.406;2023-10-13T09:47:10;100516.13;;;20.32;75.91
79540;BME280;68991;52.122;5.406;2023-10-13T09:49:45;100501.44;;;20.33;75.76
79540;BME280;68991;52.122;5.406;2023-10-13T09:52:17;100498.69;;;20.33;76.17
79540;BME280;68991;52.122;5.406;2023-10-13T09:55:03;100491.38;;;20.34;76.09
79540;BME280;68991;52.122;5.406;2023-10-13T09:57:37;100487.66;;;20.35;75.90
79540;BME280;68991;52.122;5.406;2023-10-13T10:00:17;100482.19;;;20.35;76.24
79540;BME280;68991;52.122;5.406;2023-10-13T10:03:06;100484.91;;;20.35;75.95
79540;BME280;68991;52.122;5.406;2023-10-13T10:05:42;100479.44;;;20.35;76.10
79540;BME280;68991;52.122;5.406;2023-10-13T10:08:23;100476.72;;;20.35;75.98
79540;BME280;68991;52.122;5.406;2023-10-13T10:11:36;100477.41;;;20.37;76.03
79540;BME280;68991;52.122;5.406;2023-10-13T10:14:41;100456.63;;;20.36;76.23
79540;BME280;68991;52.122;5.406;2023-10-13T10:17:11;100464.50;;;20.39;76.22
79540;BME280;68991;52.122;5.406;2023-10-13T10:19:47;100461.47;;;20.42;76.16
79540;BME280;68991;52.122;5.406;2023-10-13T10:22:31;100466.94;;;20.42;75.91
79540;BME280;68991;52.122;5.406;2023-10-13T10:25:04;100456.88;;;20.43;75.51
79540;BME280;68991;52.122;5.406;2023-10-13T10:27:33;100449.53;;;20.43;75.60
79540;BME280;68991;52.122;5.406;2023-10-13T10:30:01;100443.06;;;20.44;75.47
79540;BME280;68991;52.122;5.406;2023-10-13T10:35:05;100434.72;;;20.46;75.26
79540;BME280;68991;52.122;5.406;2023-10-13T10:37:36;100431.00;;;20.47;75.57
79540;BME280;68991;52.122;5.406;2023-10-13T10:40:07;100434.41;;;20.49;75.45
79540;BME280;68991;52.122;5.406;2023-10-13T10:42:34;100437.88;;;20.51;75.63
79540;BME280;68991;52.122;5.406;2023-10-13T10:45:01;100429.38;;;20.54;75.68
79540;BME280;68991;52.122;5.406;2023-10-13T10:47:35;100422.06;;;20.54;75.54
79540;BME280;68991;52.122;5.406;2023-10-13T10:50:05;100422.88;;;20.55;76.40
79540;BME280;68991;52.122;5.406;2023-10-13T10:52:45;100428.22;;;20.56;76.07
79540;BME280;68991;52.122;5.406;2023-10-13T10:55:13;100417.16;;;20.58;75.92
79540;BME280;68991;52.122;5.406;2023-10-13T10:57:46;100415.25;;;20.58;76.31
79540;BME280;68991;52.122;5.406;2023-10-13T11:00:19;100408.78;;;20.59;75.76
79540;BME280;68991;52.122;5.406;2023-10-13T11:02:58;100398.59;;;20.61;76.40
79540;BME280;68991;52.122;5.406;2023-10-13T11:05:24;100405.59;;;20.64;76.43
79540;BME280;68991;52.122;5.406;2023-10-13T11:07:59;100390.06;;;20.64;76.12
79540;BME280;68991;52.122;5.406;2023-10-13T11:10:25;100401.88;;;20.65;75.99
79540;BME280;68991;52.122;5.406;2023-10-13T11:12:58;100398.28;;;20.64;76.38
79540;BME280;68991;52.122;5.406;2023-10-13T11:15:44;100403.75;;;20.64;76.26
79540;BME280;68991;52.122;5.406;2023-10-13T11:18:11;100400.16;;;20.64;76.12
79540;BME280;68991;52.122;5.406;2023-10-13T11:20:48;100381.03;;;20.64;76.22
79540;BME280;68991;52.122;5.406;2023-10-13T11:23:21;100372.81;;;20.64;76.41
79540;BME280;68991;52.122;5.406;2023-10-13T11:25:57;100379.16;;;20.64;75.86
79540;BME280;68991;52.122;5.406;2023-10-13T11:28:25;100370.09;;;20.64;76.19
79540;BME280;68991;52.122;5.406;2023-10-13T11:30:55;100360.03;;;20.64;76.39
79540;BME280;68991;52.122;5.406;2023-10-13T11:33:26;100362.75;;;20.64;76.13
79540;BME280;68991;52.122;5.406;2023-10-13T11:35:56;100365.31;;;20.66;76.37
79540;BME280;68991;52.122;5.406;2023-10-13T11:38:34;100353.53;;;20.65;76.47
79540;BME280;68991;52.122;5.406;2023-10-13T11:41:07;100346.94;;;20.68;76.49
79540;BME280;68991;52.122;5.406;2023-10-13T11:43:40;100341.47;;;20.68;76.41
79540;BME280;68991;52.122;5.406;2023-10-13T11:46:11;100342.34;;;20.68;76.04
79540;BME280;68991;52.122;5.406;2023-10-13T11:48:44;100346.94;;;20.68;76.42
79540;BME280;68991;52.122;5.406;2023-10-13T11:51:14;100336.88;;;20.68;76.18
79540;BME280;68991;52.122;5.406;2023-10-13T11:53:44;100311.41;;;20.68;76.11
79540;BME280;68991;52.122;5.406;2023-10-13T11:56:11;100325.94;;;20.68;76.19
79540;BME280;68991;52.122;5.406;2023-10-13T11:58:38;100350.53;;;20.68;76.01
79540;BME280;68991;52.122;5.406;2023-10-13T12:01:06;100334.81;;;20.70;76.10
79540;BME280;68991;52.122;5.406;2023-10-13T12:03:42;100321.16;;;20.70;75.83
79540;BME280;68991;52.122;5.406;2023-10-13T12:06:28;100343.75;;;20.72;75.62
79540;BME280;68991;52.122;5.406;2023-10-13T12:11:57;100338.28;;;20.72;75.81
79540;BME280;68991;52.122;5.406;2023-10-13T12:14:26;100342.88;;;20.72;75.49
79540;BME280;68991;52.122;5.406;2023-10-13T12:17:19;100351.06;;;20.72;75.49
79540;BME280;68991;52.122;5.406;2023-10-13T12:19:52;100343.88;;;20.71;75.81
79540;BME280;68991;52.122;5.406;2023-10-13T12:22:19;100347.47;;;20.71;75.82
79540;BME280;68991;52.122;5.406;2023-10-13T12:24:54;100336.38;;;20.73;75.57
79540;BME280;68991;52.122;5.406;2023-10-13T12:27:21;100331.78;;;20.73;75.77
79540;BME280;68991;52.122;5.406;2023-10-13T12:30:02;100331.63;;;20.75;75.32
79540;BME280;68991;52.122;5.406;2023-10-13T12:32:40;100333.38;;;20.76;75.13
79540;BME280;68991;52.122;5.406;2023-10-13T12:35:11;100327.91;;;20.76;75.31
79540;BME280;68991;52.122;5.406;2023-10-13T12:37:37;100317.81;;;20.76;75.00
79540;BME280;68991;52.122;5.406;2023-10-13T12:40:08;100312.34;;;20.76;75.52
79540;BME280;68991;52.122;5.406;2023-10-13T12:42:54;100331.31;;;20.78;75.10
79540;BME280;68991;52.122;5.406;2023-10-13T12:45:43;100335.94;;;20.77;75.50
79540;BME280;68991;52.122;5.406;2023-10-13T12:48:28;100327.72;;;20.77;74.96
79540;BME280;68991;52.122;5.406;2023-10-13T12:51:14;100327.72;;;20.77;75.43
79540;BME280;68991;52.122;5.406;2023-10-13T12:53:47;100330.47;;;20.77;75.43
79540;BME280;68991;52.122;5.406;2023-10-13T12:56:15;100327.72;;;20.77;74.90
79540;BME280;68991;52.122;5.406;2023-10-13T12:58:45;100323.13;;;20.78;75.07
79540;BME280;68991;52.122;5.406;2023-10-13T13:01:18;100327.59;;;20.79;74.83
79540;BME280;68991;52.122;5.406;2023-10-13T13:03:48;100338.66;;;20.77;74.81
79540;BME280;68991;52.122;5.406;2023-10-13T13:06:24;100339.53;;;20.78;74.96
79540;BME280;68991;52.122;5.406;2023-10-13T13:08:51;100328.44;;;20.79;75.06
79540;BME280;68991;52.122;5.406;2023-10-13T13:11:18;100335.78;;;20.79;74.72
79540;BME280;68991;52.122;5.406;2023-10-13T13:13:45;100330.16;;;20.80;74.79
79540;BME280;68991;52.122;5.406;2023-10-13T13:16:14;100331.88;;;20.81;74.94
79540;BME280;68991;52.122;5.406;2023-10-13T13:18:41;100318.91;;;20.83;74.97
79540;BME280;68991;52.122;5.406;2023-10-13T13:21:09;100336.03;;;20.85;75.27
79540;BME280;68991;52.122;5.406;2023-10-13T13:23:38;100334.16;;;20.86;75.45
79540;BME280;68991;52.122;5.406;2023-10-13T13:26:06;100327.66;;;20.87;75.57
79540;BME280;68991;52.122;5.406;2023-10-13T13:28:42;100329.56;;;20.87;75.53
79540;BME280;68991;52.122;5.406;2023-10-13T13:31:09;100331.25;;;20.88;75.29
79540;BME280;68991;52.122;5.406;2023-10-13T13:33:38;100309.38;;;20.88;75.07
79540;BME280;68991;52.122;5.406;2023-10-13T13:36:09;100308.53;;;20.87;75.17
79540;BME280;68991;52.122;5.406;2023-10-13T13:38:43;100305.78;;;20.87;75.39
79540;BME280;68991;52.122;5.406;2023-10-13T13:41:16;100304.09;;;20.86;75.87